Artesia, New Mexico
Current Conditions -  °F | °C
As of 4:51 PM on Monday 24 Nov 2014 (Local Time) from KROW Reporting Station
Clear Clear  
Wind Chill: 12°   Ceiling: Unl
Heat Index: 12°   Visibility: 10mi
Dew Point: -15°   Wind: 14mph
Humidity: 14%   Direction: 310°NW
Pressure: 30.05"   Gusts: NA
Location:  32.84°N, 104.39°W
Report Text: KROW 242351Z 31012KT 10SM CLR 12/M15 A3005 RMK AO2 PK WND 30026/2322 SLP156 T01171150 10150 20117 53018
Loading
Personal Weather Stations






























Interactive Weather Map New forecast layout! Learn more

10-Day Weather Forecast

Advertisements
Track Severe Weather on mobile